PWSweather.com
Personal Weather Stations
Station Observations
KMABELCH13
Bardwell St, Belchertown, MA 01007

Bardwell StBelchertown, MA 01007

Lat: 42.223623, Lon: -72.374475

Elevation: 430

Station Type: Ambient Weather WS-1200-IP ObserverIP

Latest ConditionsUpdated 4:20:00 PM EDT Thursday, Apr 18, 2019
Currently Today's Max Today's Min Today's Average
Temperature 47.2°F8.4°C 51.4°F10.8°C 35.1°F1.7°C 43.8°F6.6°C
Dew Point 37.3°F2.9°C 37.3°F2.9°C 19.8°F-6.8°C 28.2°F-2.1°C
Winds 2.9 mph SE4.7 kmh SE 6.6 mph -10.6 kmh - - 1.6 mph 2.6 kmh
Wind Gusts 8.0 mph12.9 kmh 13.0 mph20.9 kmh - -
Humidity 68% 74% 31% 55%
Pressure 30.16 in1021.3 mb 30.34 in1027.4 mb 30.16 in1021.3 mb -
Precipitation - 0.01 in0.3 mm - -
Hour Temp Dew Point Humidity Winds Wind Gusts Pressure Precip Precip Rate Daily Precip Total
04:20 PM 47.2°F8.4°C 37.3°F2.9°C 68% 2.9 mph SE4.7 kmh SE 8.0 mph12.9 kmh 30.16 in1021.3 mb 0.00 in0.0 mm 0.00 in0.0 mm 0.01 in0.3 mm
04:15 PM 47.2°F8.4°C 37.2°F2.9°C 68% 2.3 mph SSE3.7 kmh SSE 4.0 mph6.4 kmh 30.17 in1021.7 mb 0.00 in0.0 mm 0.00 in0.0 mm 0.01 in0.3 mm
04:10 PM 47.4°F8.6°C 37.2°F2.9°C 68% 1.9 mph S3.1 kmh S 4.0 mph6.4 kmh 30.17 in1021.7 mb 0.00 in0.0 mm 0.00 in0.0 mm 0.01 in0.3 mm
04:05 PM 47.5°F8.6°C 37.0°F2.8°C 67% 2.9 mph SSE4.7 kmh SSE 9.0 mph14.5 kmh 30.18 in1022.0 mb 0.00 in0.0 mm 0.00 in0.0 mm 0.01 in0.3 mm
04:00 PM 47.7°F8.7°C 37.0°F2.8°C 66% 3.3 mph SSE5.3 kmh SSE 7.0 mph11.3 kmh 30.18 in1022.0 mb 0.00 in0.0 mm 0.00 in0.0 mm 0.01 in0.3 mm
03:55 PM 47.9°F8.8°C 37.0°F2.8°C 66% 2.4 mph SSE3.9 kmh SSE 6.0 mph9.7 kmh 30.19 in1022.4 mb 0.00 in0.0 mm 0.00 in0.0 mm 0.01 in0.3 mm
03:50 PM 48.1°F8.9°C 36.8°F2.7°C 65% 1.3 mph SSE2.1 kmh SSE 4.0 mph6.4 kmh 30.19 in1022.4 mb 0.00 in0.0 mm 0.00 in0.0 mm 0.01 in0.3 mm
03:45 PM 48.2°F9.0°C 36.7°F2.6°C 64% 1.7 mph S2.7 kmh S 5.0 mph8.0 kmh 30.19 in1022.4 mb 0.00 in0.0 mm 0.00 in0.0 mm 0.01 in0.3 mm
03:40 PM 48.3°F9.1°C 36.4°F2.4°C 63% 2.3 mph S3.7 kmh S 6.0 mph9.7 kmh 30.19 in1022.4 mb 0.00 in0.0 mm 0.00 in0.0 mm 0.01 in0.3 mm
03:35 PM 48.4°F9.1°C 36.2°F2.3°C 63% 1.7 mph S2.7 kmh S 4.0 mph6.4 kmh 30.19 in1022.4 mb 0.00 in0.0 mm 0.00 in0.0 mm 0.01 in0.3 mm
03:30 PM 48.6°F9.2°C 36.3°F2.4°C 62% 1.9 mph SSE3.1 kmh SSE 5.0 mph8.0 kmh 30.20 in1022.7 mb 0.00 in0.0 mm 0.00 in0.0 mm 0.01 in0.3 mm
03:25 PM 48.7°F9.3°C 36.0°F2.2°C 61% 2.1 mph SSE3.4 kmh SSE 5.0 mph8.0 kmh 30.20 in1022.7 mb 0.00 in0.0 mm 0.00 in0.0 mm 0.01 in0.3 mm
03:20 PM 48.9°F9.4°C 35.9°F2.2°C 61% 2.3 mph S3.7 kmh S 5.0 mph8.0 kmh 30.20 in1022.7 mb 0.00 in0.0 mm 0.00 in0.0 mm 0.01 in0.3 mm
03:15 PM 49.1°F9.5°C 35.6°F2.0°C 59% 4.8 mph S7.7 kmh S 10.0 mph16.1 kmh 30.20 in1022.7 mb 0.00 in0.0 mm 0.00 in0.0 mm 0.01 in0.3 mm
03:10 PM 49.2°F9.6°C 35.5°F1.9°C 59% 3.1 mph S5.0 kmh S 7.0 mph11.3 kmh 30.20 in1022.7 mb 0.00 in0.0 mm 0.00 in0.0 mm 0.01 in0.3 mm
03:05 PM 49.3°F9.6°C 35.4°F1.9°C 59% 3.0 mph S4.8 kmh S 9.0 mph14.5 kmh 30.20 in1022.7 mb 0.00 in0.0 mm 0.00 in0.0 mm 0.01 in0.3 mm
03:00 PM 49.3°F9.6°C 35.4°F1.9°C 59% 3.0 mph S4.8 kmh S 9.0 mph14.5 kmh 30.20 in1022.7 mb 0.00 in0.0 mm 0.00 in0.0 mm 0.01 in0.3 mm
02:55 PM 49.3°F9.6°C 35.7°F2.1°C 59% 4.2 mph SSE6.8 kmh SSE 9.0 mph14.5 kmh 30.21 in1023.0 mb 0.00 in0.0 mm 0.00 in0.0 mm 0.01 in0.3 mm
02:50 PM 49.2°F9.6°C 35.8°F2.1°C 60% 3.7 mph SSE6.0 kmh SSE 8.0 mph12.9 kmh 30.21 in1023.0 mb 0.00 in0.0 mm 0.00 in0.0 mm 0.01 in0.3 mm
02:45 PM 49.1°F9.5°C 36.3°F2.4°C 61% 2.3 mph SE3.7 kmh SE 7.0 mph11.3 kmh 30.21 in1023.0 mb 0.00 in0.0 mm 0.00 in0.0 mm 0.01 in0.3 mm
02:40 PM 49.0°F9.4°C 36.2°F2.3°C 61% 2.0 mph S3.2 kmh S 4.0 mph6.4 kmh 30.21 in1023.0 mb 0.00 in0.0 mm 0.00 in0.0 mm 0.01 in0.3 mm
02:35 PM 48.9°F9.4°C 36.1°F2.3°C 61% 2.5 mph S4.0 kmh S 7.0 mph11.3 kmh 30.21 in1023.0 mb 0.00 in0.0 mm 0.00 in0.0 mm 0.01 in0.3 mm
02:30 PM 48.8°F9.3°C 36.0°F2.2°C 61% 3.5 mph SSE5.6 kmh SSE 7.0 mph11.3 kmh 30.21 in1023.0 mb 0.00 in0.0 mm 0.00 in0.0 mm 0.01 in0.3 mm
02:25 PM 48.7°F9.3°C 35.9°F2.2°C 61% 3.1 mph S5.0 kmh S 10.0 mph16.1 kmh 30.22 in1023.4 mb 0.00 in0.0 mm 0.00 in0.0 mm 0.01 in0.3 mm
02:20 PM 48.5°F9.2°C 35.9°F2.2°C 61% 3.1 mph S5.0 kmh S 7.0 mph11.3 kmh 30.22 in1023.4 mb 0.00 in0.0 mm 0.00 in0.0 mm 0.01 in0.3 mm
02:15 PM 48.5°F9.2°C 35.9°F2.2°C 62% 1.7 mph SSE2.7 kmh SSE 4.0 mph6.4 kmh 30.22 in1023.4 mb 0.00 in0.0 mm 0.00 in0.0 mm 0.01 in0.3 mm
02:10 PM 48.5°F9.2°C 35.9°F2.2°C 62% 2.2 mph S3.5 kmh S 7.0 mph11.3 kmh 30.22 in1023.4 mb 0.00 in0.0 mm 0.00 in0.0 mm 0.01 in0.3 mm
02:05 PM 48.5°F9.2°C 35.8°F2.1°C 61% 1.9 mph S3.1 kmh S 5.0 mph8.0 kmh 30.22 in1023.4 mb 0.00 in0.0 mm 0.00 in0.0 mm 0.01 in0.3 mm
02:00 PM 48.7°F9.3°C 35.9°F2.2°C 61% 3.1 mph S5.0 kmh S 6.0 mph9.7 kmh 30.22 in1023.4 mb 0.00 in0.0 mm 0.00 in0.0 mm 0.01 in0.3 mm
01:55 PM 48.8°F9.3°C 35.5°F1.9°C 60% 3.8 mph SSE6.1 kmh SSE 9.0 mph14.5 kmh 30.22 in1023.4 mb 0.00 in0.0 mm 0.00 in0.0 mm 0.01 in0.3 mm
01:50 PM 49.1°F9.5°C 35.6°F2.0°C 59% 3.4 mph S5.5 kmh S 7.0 mph11.3 kmh 30.23 in1023.7 mb 0.00 in0.0 mm 0.00 in0.0 mm 0.01 in0.3 mm
01:45 PM 49.4°F9.7°C 35.4°F1.9°C 58% 4.0 mph S6.4 kmh S 9.0 mph14.5 kmh 30.23 in1023.7 mb 0.00 in0.0 mm 0.00 in0.0 mm 0.01 in0.3 mm
01:40 PM 49.7°F9.8°C 34.9°F1.6°C 57% 3.8 mph S6.1 kmh S 10.0 mph16.1 kmh 30.23 in1023.7 mb 0.00 in0.0 mm 0.00 in0.0 mm 0.01 in0.3 mm
01:35 PM 49.8°F9.9°C 34.8°F1.6°C 56% 2.9 mph S4.7 kmh S 9.0 mph14.5 kmh 30.23 in1023.7 mb 0.00 in0.0 mm 0.00 in0.0 mm 0.01 in0.3 mm
01:30 PM 49.8°F9.9°C 34.6°F1.4°C 56% 3.0 mph S4.8 kmh S 6.0 mph9.7 kmh 30.23 in1023.7 mb 0.00 in0.0 mm 0.00 in0.0 mm 0.01 in0.3 mm
01:25 PM 49.9°F9.9°C 34.4°F1.3°C 55% 3.8 mph S6.1 kmh S 9.0 mph14.5 kmh 30.23 in1023.7 mb 0.00 in0.0 mm 0.00 in0.0 mm 0.01 in0.3 mm
01:20 PM 50.0°F10.0°C 34.2°F1.2°C 54% 5.0 mph S8.0 kmh S 10.0 mph16.1 kmh 30.24 in1024.0 mb 0.00 in0.0 mm 0.00 in0.0 mm 0.01 in0.3 mm
01:15 PM 50.2°F10.1°C 34.0°F1.1°C 54% 5.2 mph S8.4 kmh S 13.0 mph20.9 kmh 30.24 in1024.0 mb 0.00 in0.0 mm 0.00 in0.0 mm 0.01 in0.3 mm
01:10 PM 50.3°F10.2°C 33.8°F1.0°C 53% 5.7 mph SSE9.2 kmh SSE 11.0 mph17.7 kmh 30.24 in1024.0 mb 0.00 in0.0 mm 0.00 in0.0 mm 0.01 in0.3 mm
01:05 PM 50.4°F10.2°C 33.8°F1.0°C 53% 6.6 mph SSE10.6 kmh SSE 11.0 mph17.7 kmh 30.25 in1024.4 mb 0.00 in0.0 mm 0.00 in0.0 mm 0.01 in0.3 mm
01:00 PM 50.4°F10.2°C 33.6°F0.9°C 52% 4.7 mph S7.6 kmh S 9.0 mph14.5 kmh 30.25 in1024.4 mb 0.00 in0.0 mm 0.00 in0.0 mm 0.01 in0.3 mm
12:55 PM 50.5°F10.3°C 33.2°F0.7°C 51% 4.6 mph S7.4 kmh S 11.0 mph17.7 kmh 30.26 in1024.7 mb 0.00 in0.0 mm 0.00 in0.0 mm 0.01 in0.3 mm
12:50 PM 50.6°F10.3°C 33.2°F0.7°C 51% 2.6 mph S4.2 kmh S 6.0 mph9.7 kmh 30.27 in1025.1 mb 0.00 in0.0 mm 0.00 in0.0 mm 0.01 in0.3 mm
12:45 PM 50.8°F10.4°C 32.6°F0.3°C 50% 3.5 mph SSE5.6 kmh SSE 9.0 mph14.5 kmh 30.26 in1024.7 mb 0.00 in0.0 mm 0.00 in0.0 mm 0.01 in0.3 mm
12:40 PM 51.0°F10.6°C 32.2°F0.1°C 48% 2.9 mph S4.7 kmh S 6.0 mph9.7 kmh 30.25 in1024.4 mb 0.00 in0.0 mm 0.00 in0.0 mm 0.01 in0.3 mm
12:35 PM 51.0°F10.6°C 31.6°F-0.2°C 47% 2.6 mph S4.2 kmh S 6.0 mph9.7 kmh 30.25 in1024.4 mb 0.00 in0.0 mm 0.00 in0.0 mm 0.01 in0.3 mm
12:30 PM 51.0°F10.6°C 30.3°F-0.9°C 45% 5.0 mph SSE8.0 kmh SSE 11.0 mph17.7 kmh 30.25 in1024.4 mb 0.00 in0.0 mm 0.00 in0.0 mm 0.01 in0.3 mm
12:25 PM 51.2°F10.7°C 29.8°F-1.2°C 44% 3.1 mph SSW5.0 kmh SSW 8.0 mph12.9 kmh 30.25 in1024.4 mb 0.00 in0.0 mm 0.00 in0.0 mm 0.01 in0.3 mm
12:20 PM 51.3°F10.7°C 29.2°F-1.6°C 42% 3.7 mph S6.0 kmh S 9.0 mph14.5 kmh 30.26 in1024.7 mb 0.00 in0.0 mm 0.00 in0.0 mm 0.01 in0.3 mm
12:15 PM 51.3°F10.7°C 28.3°F-2.1°C 41% 4.5 mph S7.2 kmh S 12.0 mph19.3 kmh 30.26 in1024.7 mb 0.00 in0.0 mm 0.00 in0.0 mm 0.01 in0.3 mm
12:10 PM 51.4°F10.8°C 27.3°F-2.6°C 39% 4.3 mph SSE6.9 kmh SSE 8.0 mph12.9 kmh 30.27 in1025.1 mb 0.00 in0.0 mm 0.00 in0.0 mm 0.01 in0.3 mm
12:05 PM 51.3°F10.7°C 27.0°F-2.8°C 39% 2.6 mph S4.2 kmh S 8.0 mph12.9 kmh 30.26 in1024.7 mb 0.00 in0.0 mm 0.00 in0.0 mm 0.01 in0.3 mm
12:00 PM 51.1°F10.6°C 26.9°F-2.8°C 39% 2.8 mph SSE4.5 kmh SSE 6.0 mph9.7 kmh 30.26 in1024.7 mb 0.00 in0.0 mm 0.00 in0.0 mm 0.01 in0.3 mm
11:55 AM 50.9°F10.5°C 26.2°F-3.2°C 38% 4.4 mph S7.1 kmh S 12.0 mph19.3 kmh 30.25 in1024.4 mb 0.00 in0.0 mm 0.00 in0.0 mm 0.01 in0.3 mm
11:50 AM 50.7°F10.4°C 25.8°F-3.4°C 38% 3.7 mph S6.0 kmh S 8.0 mph12.9 kmh 30.25 in1024.4 mb 0.00 in0.0 mm 0.00 in0.0 mm 0.01 in0.3 mm
11:45 AM 50.3°F10.2°C 25.1°F-3.8°C 37% 3.6 mph SSE5.8 kmh SSE 7.0 mph11.3 kmh 30.26 in1024.7 mb 0.00 in0.0 mm 0.00 in0.0 mm 0.01 in0.3 mm
11:40 AM 50.0°F10.0°C 25.1°F-3.8°C 38% 2.9 mph S4.7 kmh S 6.0 mph9.7 kmh 30.26 in1024.7 mb 0.00 in0.0 mm 0.00 in0.0 mm 0.01 in0.3 mm
11:35 AM 49.7°F9.8°C 24.4°F-4.2°C 37% 2.6 mph S4.2 kmh S 7.0 mph11.3 kmh 30.26 in1024.7 mb 0.00 in0.0 mm 0.00 in0.0 mm 0.01 in0.3 mm
11:30 AM 49.5°F9.7°C 23.5°F-4.7°C 36% 4.1 mph SSE6.6 kmh SSE 9.0 mph14.5 kmh 30.26 in1024.7 mb 0.00 in0.0 mm 0.00 in0.0 mm 0.01 in0.3 mm
11:25 AM 49.4°F9.7°C 23.5°F-4.7°C 36% 3.5 mph S5.6 kmh S 7.0 mph11.3 kmh 30.27 in1025.1 mb 0.00 in0.0 mm 0.00 in0.0 mm 0.01 in0.3 mm
11:20 AM 49.2°F9.6°C 23.5°F-4.7°C 36% 3.4 mph S5.5 kmh S 8.0 mph12.9 kmh 30.27 in1025.1 mb 0.00 in0.0 mm 0.00 in0.0 mm 0.01 in0.3 mm
11:15 AM 49.2°F9.6°C 22.5°F-5.3°C 35% 3.5 mph SSE5.6 kmh SSE 9.0 mph14.5 kmh 30.27 in1025.1 mb 0.00 in0.0 mm 0.00 in0.0 mm 0.01 in0.3 mm
11:10 AM 49.2°F9.6°C 21.6°F-5.8°C 33% 3.7 mph S6.0 kmh S 10.0 mph16.1 kmh 30.27 in1025.1 mb 0.00 in0.0 mm 0.00 in0.0 mm 0.01 in0.3 mm
11:05 AM 49.2°F9.6°C 21.5°F-5.8°C 33% 4.8 mph S7.7 kmh S 13.0 mph20.9 kmh 30.27 in1025.1 mb 0.00 in0.0 mm 0.00 in0.0 mm 0.01 in0.3 mm
11:00 AM 49.3°F9.6°C 21.5°F-5.8°C 33% 3.2 mph SSE5.1 kmh SSE 10.0 mph16.1 kmh 30.27 in1025.1 mb 0.00 in0.0 mm 0.00 in0.0 mm 0.01 in0.3 mm
10:55 AM 49.3°F9.6°C 21.1°F-6.1°C 33% 3.3 mph S5.3 kmh S 7.0 mph11.3 kmh 30.27 in1025.1 mb 0.00 in0.0 mm 0.00 in0.0 mm 0.01 in0.3 mm
10:50 AM 49.2°F9.6°C 20.5°F-6.4°C 32% 3.3 mph S5.3 kmh S 7.0 mph11.3 kmh 30.27 in1025.1 mb 0.00 in0.0 mm 0.00 in0.0 mm 0.01 in0.3 mm
10:45 AM 49.2°F9.6°C 20.2°F-6.6°C 31% 3.5 mph S5.6 kmh S 9.0 mph14.5 kmh 30.28 in1025.4 mb 0.00 in0.0 mm 0.00 in0.0 mm 0.01 in0.3 mm
10:40 AM 49.3°F9.6°C 20.5°F-6.4°C 32% 2.8 mph S4.5 kmh S 8.0 mph12.9 kmh 30.28 in1025.4 mb 0.00 in0.0 mm 0.00 in0.0 mm 0.01 in0.3 mm
10:35 AM 49.2°F9.6°C 21.5°F-5.8°C 33% 2.2 mph S3.5 kmh S 6.0 mph9.7 kmh 30.28 in1025.4 mb 0.00 in0.0 mm 0.00 in0.0 mm 0.01 in0.3 mm
10:30 AM 49.1°F9.5°C 20.9°F-6.2°C 33% 2.3 mph S3.7 kmh S 7.0 mph11.3 kmh 30.28 in1025.4 mb 0.00 in0.0 mm 0.00 in0.0 mm 0.01 in0.3 mm
10:25 AM 48.9°F9.4°C 22.5°F-5.3°C 35% 1.9 mph S3.1 kmh S 5.0 mph8.0 kmh 30.28 in1025.4 mb 0.00 in0.0 mm 0.00 in0.0 mm 0.01 in0.3 mm
10:20 AM 48.8°F9.3°C 22.5°F-5.3°C 35% 1.5 mph S2.4 kmh S 5.0 mph8.0 kmh 30.28 in1025.4 mb 0.00 in0.0 mm 0.00 in0.0 mm 0.01 in0.3 mm
10:15 AM 48.6°F9.2°C 21.9°F-5.6°C 35% 2.0 mph S3.2 kmh S 6.0 mph9.7 kmh 30.28 in1025.4 mb 0.00 in0.0 mm 0.00 in0.0 mm 0.01 in0.3 mm
10:10 AM 48.5°F9.2°C 21.3°F-5.9°C 34% 2.6 mph S4.2 kmh S 6.0 mph9.7 kmh 30.29 in1025.7 mb 0.00 in0.0 mm 0.00 in0.0 mm 0.01 in0.3 mm
10:05 AM 48.6°F9.2°C 21.3°F-5.9°C 34% 2.2 mph S3.5 kmh S 6.0 mph9.7 kmh 30.29 in1025.7 mb 0.00 in0.0 mm 0.00 in0.0 mm 0.01 in0.3 mm
10:00 AM 48.7°F9.3°C 20.3°F-6.5°C 32% 3.9 mph S6.3 kmh S 9.0 mph14.5 kmh 30.28 in1025.4 mb 0.00 in0.0 mm 0.00 in0.0 mm 0.01 in0.3 mm
09:55 AM 48.7°F9.3°C 20.6°F-6.3°C 33% 3.6 mph SSE5.8 kmh SSE 12.0 mph19.3 kmh 30.28 in1025.4 mb 0.00 in0.0 mm 0.00 in0.0 mm 0.01 in0.3 mm
09:50 AM 48.7°F9.3°C 21.0°F-6.1°C 33% 3.0 mph SSE4.8 kmh SSE 7.0 mph11.3 kmh 30.29 in1025.7 mb 0.00 in0.0 mm 0.00 in0.0 mm 0.01 in0.3 mm
09:45 AM 48.7°F9.3°C 19.8°F-6.8°C 32% 3.4 mph S5.5 kmh S 8.0 mph12.9 kmh 30.28 in1025.4 mb 0.00 in0.0 mm 0.00 in0.0 mm 0.01 in0.3 mm
09:40 AM 48.5°F9.2°C 21.0°F-6.1°C 33% 3.6 mph S5.8 kmh S 9.0 mph14.5 kmh 30.28 in1025.4 mb 0.00 in0.0 mm 0.00 in0.0 mm 0.01 in0.3 mm
09:35 AM 48.3°F9.1°C 21.9°F-5.6°C 35% 3.0 mph S4.8 kmh S 6.0 mph9.7 kmh 30.28 in1025.4 mb 0.00 in0.0 mm 0.00 in0.0 mm 0.01 in0.3 mm
09:30 AM 48.0°F8.9°C 23.1°F-4.9°C 37% 3.8 mph SSE6.1 kmh SSE 7.0 mph11.3 kmh 30.29 in1025.7 mb 0.00 in0.0 mm 0.00 in0.0 mm 0.01 in0.3 mm
09:25 AM 47.8°F8.8°C 23.9°F-4.5°C 39% 2.0 mph S3.2 kmh S 5.0 mph8.0 kmh 30.29 in1025.7 mb 0.00 in0.0 mm 0.00 in0.0 mm 0.01 in0.3 mm
09:20 AM 47.6°F8.7°C 25.4°F-3.7°C 41% 1.4 mph SE2.3 kmh SE 4.0 mph6.4 kmh 30.29 in1025.7 mb 0.00 in0.0 mm 0.00 in0.0 mm 0.01 in0.3 mm
09:15 AM 47.5°F8.6°C 26.2°F-3.2°C 43% 0.7 mph SE1.1 kmh SE 2.0 mph3.2 kmh 30.29 in1025.7 mb 0.00 in0.0 mm 0.00 in0.0 mm 0.01 in0.3 mm
09:10 AM 47.2°F8.4°C 26.6°F-3.0°C 44% 0.6 mph SE1.0 kmh SE 2.0 mph3.2 kmh 30.30 in1026.1 mb 0.00 in0.0 mm 0.00 in0.0 mm 0.01 in0.3 mm
09:05 AM 47.0°F8.3°C 26.9°F-2.8°C 45% Calm Calm -- 30.30 in1026.1 mb 0.00 in0.0 mm 0.00 in0.0 mm 0.01 in0.3 mm
09:00 AM 46.9°F8.3°C 27.3°F-2.6°C 46% 0.2 mph SE0.3 kmh SE 1.0 mph1.6 kmh 30.30 in1026.1 mb 0.00 in0.0 mm 0.00 in0.0 mm 0.01 in0.3 mm
08:55 AM 46.9°F8.3°C 27.4°F-2.6°C 46% 0.7 mph SE1.1 kmh SE 2.0 mph3.2 kmh 30.30 in1026.1 mb 0.00 in0.0 mm 0.00 in0.0 mm 0.01 in0.3 mm
08:50 AM 46.8°F8.2°C 27.0°F-2.8°C 46% 1.5 mph SE2.4 kmh SE 3.0 mph4.8 kmh 30.31 in1026.4 mb 0.00 in0.0 mm 0.00 in0.0 mm 0.01 in0.3 mm
08:45 AM 46.6°F8.1°C 25.0°F-3.9°C 43% 1.3 mph SSE2.1 kmh SSE 5.0 mph8.0 kmh 30.31 in1026.4 mb 0.00 in0.0 mm 0.00 in0.0 mm 0.01 in0.3 mm
08:40 AM 46.4°F8.0°C 26.9°F-2.8°C 46% 0.6 mph SE1.0 kmh SE 3.0 mph4.8 kmh 30.31 in1026.4 mb 0.00 in0.0 mm 0.00 in0.0 mm 0.01 in0.3 mm
08:35 AM 46.2°F7.9°C 28.3°F-2.1°C 49% 0.6 mph SSE1.0 kmh SSE 2.0 mph3.2 kmh 30.31 in1026.4 mb 0.00 in0.0 mm 0.00 in0.0 mm 0.01 in0.3 mm
08:30 AM 45.8°F7.7°C 27.6°F-2.4°C 49% 1.5 mph SSE2.4 kmh SSE 2.0 mph3.2 kmh 30.31 in1026.4 mb 0.00 in0.0 mm 0.00 in0.0 mm 0.01 in0.3 mm
08:25 AM 45.3°F7.4°C 28.5°F-1.9°C 52% 1.8 mph SSE2.9 kmh SSE 4.0 mph6.4 kmh 30.31 in1026.4 mb 0.00 in0.0 mm 0.00 in0.0 mm 0.01 in0.3 mm
08:20 AM 44.9°F7.2°C 28.8°F-1.8°C 53% 1.1 mph SSE1.8 kmh SSE 4.0 mph6.4 kmh 30.31 in1026.4 mb 0.00 in0.0 mm 0.00 in0.0 mm 0.01 in0.3 mm
08:15 AM 44.3°F6.8°C 28.3°F-2.1°C 53% 2.6 mph SSE4.2 kmh SSE 8.0 mph12.9 kmh 30.31 in1026.4 mb 0.00 in0.0 mm 0.00 in0.0 mm 0.01 in0.3 mm
08:10 AM 43.6°F6.4°C 29.6°F-1.3°C 58% 2.1 mph SSE3.4 kmh SSE 5.0 mph8.0 kmh 30.32 in1026.8 mb 0.00 in0.0 mm 0.00 in0.0 mm 0.01 in0.3 mm
08:05 AM 43.1°F6.2°C 29.7°F-1.3°C 59% 1.1 mph SSE1.8 kmh SSE 5.0 mph8.0 kmh 30.32 in1026.8 mb 0.00 in0.0 mm 0.00 in0.0 mm 0.01 in0.3 mm
08:00 AM 42.7°F5.9°C 30.5°F-0.8°C 62% 0.9 mph SSE1.4 kmh SSE 3.0 mph4.8 kmh 30.32 in1026.8 mb 0.00 in0.0 mm 0.00 in0.0 mm 0.01 in0.3 mm
07:55 AM 42.5°F5.8°C 31.1°F-0.5°C 64% 1.3 mph SSE2.1 kmh SSE 4.0 mph6.4 kmh 30.32 in1026.8 mb 0.00 in0.0 mm 0.00 in0.0 mm 0.01 in0.3 mm
07:50 AM 42.4°F5.8°C 32.5°F0.3°C 68% 0.1 mph SSE0.2 kmh SSE 2.0 mph3.2 kmh 30.32 in1026.8 mb 0.00 in0.0 mm 0.00 in0.0 mm 0.01 in0.3 mm
07:45 AM 42.2°F5.7°C 31.4°F-0.3°C 65% 0.2 mph SSE0.3 kmh SSE 1.0 mph1.6 kmh 30.32 in1026.8 mb 0.00 in0.0 mm 0.00 in0.0 mm 0.01 in0.3 mm
07:40 AM 41.9°F5.5°C 30.6°F-0.8°C 64% 0.2 mph SSE0.3 kmh SSE 1.0 mph1.6 kmh 30.32 in1026.8 mb 0.00 in0.0 mm 0.00 in0.0 mm 0.01 in0.3 mm
07:35 AM 41.5°F5.3°C 30.8°F-0.7°C 65% 0.6 mph SSE1.0 kmh SSE 2.0 mph3.2 kmh 30.32 in1026.8 mb 0.00 in0.0 mm 0.00 in0.0 mm 0.01 in0.3 mm
07:30 AM 41.1°F5.1°C 30.8°F-0.7°C 66% 0.8 mph SSE1.3 kmh SSE 2.0 mph3.2 kmh 30.32 in1026.8 mb 0.00 in0.0 mm 0.00 in0.0 mm 0.01 in0.3 mm
07:25 AM 40.8°F4.9°C 30.9°F-0.6°C 68% 0.8 mph SSE1.3 kmh SSE 2.0 mph3.2 kmh 30.31 in1026.4 mb 0.00 in0.0 mm 0.00 in0.0 mm 0.01 in0.3 mm
07:20 AM 40.5°F4.7°C 31.0°F-0.6°C 69% 0.5 mph SSE0.8 kmh SSE 2.0 mph3.2 kmh 30.31 in1026.4 mb 0.00 in0.0 mm 0.00 in0.0 mm 0.01 in0.3 mm
07:15 AM 40.3°F4.6°C 31.7°F-0.2°C 71% 1.1 mph SSE1.8 kmh SSE 3.0 mph4.8 kmh 30.31 in1026.4 mb 0.00 in0.0 mm 0.00 in0.0 mm 0.01 in0.3 mm
07:10 AM 40.1°F4.5°C 32.5°F0.3°C 74% 0.4 mph SSE0.6 kmh SSE 2.0 mph3.2 kmh 30.31 in1026.4 mb 0.00 in0.0 mm 0.00 in0.0 mm 0.01 in0.3 mm
07:05 AM 40.0°F4.4°C 32.3°F0.2°C 74% Calm Calm -- 30.32 in1026.8 mb 0.00 in0.0 mm 0.00 in0.0 mm 0.01 in0.3 mm
07:00 AM 39.8°F4.3°C 32.1°F0.1°C 74% Calm Calm -- 30.32 in1026.8 mb 0.00 in0.0 mm 0.00 in0.0 mm 0.01 in0.3 mm
06:55 AM 39.8°F4.3°C 32.0°F0.0°C 74% Calm Calm -- 30.32 in1026.8 mb 0.00 in0.0 mm 0.00 in0.0 mm 0.01 in0.3 mm
06:50 AM 39.7°F4.3°C 31.8°F-0.1°C 73% 0.3 mph SSE0.5 kmh SSE 1.0 mph1.6 kmh 30.33 in1027.1 mb 0.00 in0.0 mm 0.00 in0.0 mm 0.01 in0.3 mm
06:45 AM 39.7°F4.3°C 31.6°F-0.2°C 73% Calm Calm -- 30.33 in1027.1 mb 0.00 in0.0 mm 0.00 in0.0 mm 0.01 in0.3 mm
06:40 AM 39.7°F4.3°C 31.7°F-0.2°C 73% 0.2 mph SSE0.3 kmh SSE 1.0 mph1.6 kmh 30.33 in1027.1 mb 0.00 in0.0 mm 0.00 in0.0 mm 0.01 in0.3 mm
06:35 AM 39.6°F4.2°C 31.6°F-0.2°C 73% 0.8 mph SSE1.3 kmh SSE 2.0 mph3.2 kmh 30.33 in1027.1 mb 0.00 in0.0 mm 0.00 in0.0 mm 0.01 in0.3 mm
06:30 AM 39.6°F4.2°C 31.4°F-0.3°C 72% 0.2 mph SSE0.3 kmh SSE 1.0 mph1.6 kmh 30.33 in1027.1 mb 0.00 in0.0 mm 0.00 in0.0 mm 0.01 in0.3 mm
06:25 AM 39.5°F4.2°C 31.2°F-0.4°C 72% 0.2 mph SSE0.3 kmh SSE 1.0 mph1.6 kmh 30.33 in1027.1 mb 0.00 in0.0 mm 0.00 in0.0 mm 0.01 in0.3 mm
06:20 AM 39.4°F4.1°C 31.2°F-0.4°C 72% 0.5 mph SSE0.8 kmh SSE 2.0 mph3.2 kmh 30.33 in1027.1 mb 0.01 in0.3 mm 0.00 in0.0 mm 0.01 in0.3 mm
06:15 AM 39.3°F4.1°C 31.2°F-0.4°C 72% 1.0 mph SSE1.6 kmh SSE 2.0 mph3.2 kmh 30.33 in1027.1 mb 0.01 in0.3 mm 0.00 in0.0 mm 0.01 in0.3 mm
06:10 AM 39.3°F4.1°C 31.1°F-0.5°C 72% Calm Calm 1.0 mph1.6 kmh 30.34 in1027.4 mb 0.01 in0.3 mm 0.00 in0.0 mm 0.01 in0.3 mm
06:05 AM 39.2°F4.0°C 30.9°F-0.6°C 72% 0.7 mph SSE1.1 kmh SSE 2.0 mph3.2 kmh 30.33 in1027.1 mb 0.01 in0.3 mm 0.00 in0.0 mm 0.01 in0.3 mm
06:00 AM 38.9°F3.8°C 30.7°F-0.7°C 72% 1.3 mph SSE2.1 kmh SSE 4.0 mph6.4 kmh 30.33 in1027.1 mb 0.01 in0.3 mm 0.00 in0.0 mm 0.01 in0.3 mm
05:55 AM 38.7°F3.7°C 30.6°F-0.8°C 72% 0.6 mph S1.0 kmh S 2.0 mph3.2 kmh 30.33 in1027.1 mb 0.01 in0.3 mm 0.00 in0.0 mm 0.01 in0.3 mm
05:50 AM 38.5°F3.6°C 30.5°F-0.8°C 72% 0.5 mph SSW0.8 kmh SSW 2.0 mph3.2 kmh 30.33 in1027.1 mb 0.01 in0.3 mm 0.00 in0.0 mm 0.01 in0.3 mm
05:45 AM 38.5°F3.6°C 30.3°F-0.9°C 72% Calm Calm -- 30.33 in1027.1 mb 0.01 in0.3 mm 0.00 in0.0 mm 0.01 in0.3 mm
05:40 AM 38.4°F3.6°C 30.1°F-1.1°C 72% 0.7 mph SSW1.1 kmh SSW 2.0 mph3.2 kmh 30.33 in1027.1 mb 0.01 in0.3 mm 0.00 in0.0 mm 0.01 in0.3 mm
05:35 AM 38.4°F3.6°C 30.1°F-1.1°C 72% 0.9 mph S1.4 kmh S 2.0 mph3.2 kmh 30.33 in1027.1 mb 0.01 in0.3 mm 0.00 in0.0 mm 0.01 in0.3 mm
05:30 AM 38.4°F3.6°C 29.8°F-1.2°C 71% 0.2 mph S0.3 kmh S 2.0 mph3.2 kmh 30.34 in1027.4 mb 0.01 in0.3 mm 0.00 in0.0 mm 0.01 in0.3 mm
05:25 AM 38.4°F3.6°C 29.7°F-1.3°C 71% Calm Calm -- 30.34 in1027.4 mb 0.01 in0.3 mm 0.12 in3.0 mm 0.01 in0.3 mm
05:20 AM 38.3°F3.5°C 29.6°F-1.3°C 71% 0.6 mph S1.0 kmh S 2.0 mph3.2 kmh 30.34 in1027.4 mb 0.00 in0.0 mm 0.00 in0.0 mm 0.00 in0.0 mm
05:15 AM 38.1°F3.4°C 29.3°F-1.5°C 70% 0.6 mph SW1.0 kmh SW 3.0 mph4.8 kmh 30.34 in1027.4 mb 0.00 in0.0 mm 0.00 in0.0 mm 0.00 in0.0 mm
05:10 AM 38.0°F3.3°C 29.0°F-1.7°C 69% Calm Calm -- 30.34 in1027.4 mb 0.00 in0.0 mm 0.00 in0.0 mm 0.00 in0.0 mm
05:05 AM 37.9°F3.3°C 29.0°F-1.7°C 70% Calm Calm -- 30.34 in1027.4 mb 0.00 in0.0 mm 0.00 in0.0 mm 0.00 in0.0 mm
05:00 AM 37.8°F3.2°C 28.5°F-1.9°C 69% Calm Calm -- 30.34 in1027.4 mb 0.00 in0.0 mm 0.00 in0.0 mm 0.00 in0.0 mm
04:55 AM 37.6°F3.1°C 27.9°F-2.3°C 68% Calm Calm -- 30.34 in1027.4 mb 0.00 in0.0 mm 0.00 in0.0 mm 0.00 in0.0 mm
04:50 AM 37.4°F3.0°C 27.6°F-2.4°C 67% Calm Calm -- 30.33 in1027.1 mb 0.00 in0.0 mm 0.00 in0.0 mm 0.00 in0.0 mm
04:45 AM 37.2°F2.9°C 27.7°F-2.4°C 68% Calm Calm -- 30.33 in1027.1 mb 0.00 in0.0 mm 0.00 in0.0 mm 0.00 in0.0 mm
04:40 AM 37.0°F2.8°C 27.5°F-2.5°C 68% Calm Calm -- 30.33 in1027.1 mb 0.00 in0.0 mm 0.00 in0.0 mm 0.00 in0.0 mm
04:35 AM 36.7°F2.6°C 27.0°F-2.8°C 68% Calm Calm -- 30.32 in1026.8 mb 0.00 in0.0 mm 0.00 in0.0 mm 0.00 in0.0 mm
04:30 AM 36.4°F2.4°C 26.6°F-3.0°C 67% Calm Calm -- 30.33 in1027.1 mb 0.00 in0.0 mm 0.00 in0.0 mm 0.00 in0.0 mm
04:25 AM 36.1°F2.3°C 26.4°F-3.1°C 68% Calm Calm -- 30.33 in1027.1 mb 0.00 in0.0 mm 0.00 in0.0 mm 0.00 in0.0 mm
04:20 AM 35.9°F2.2°C 26.0°F-3.3°C 67% Calm Calm -- 30.33 in1027.1 mb 0.00 in0.0 mm 0.00 in0.0 mm 0.00 in0.0 mm
04:15 AM 35.7°F2.1°C 25.8°F-3.4°C 67% Calm Calm -- 30.33 in1027.1 mb 0.00 in0.0 mm 0.00 in0.0 mm 0.00 in0.0 mm
04:10 AM 35.5°F1.9°C 25.6°F-3.6°C 67% Calm Calm -- 30.32 in1026.8 mb 0.00 in0.0 mm 0.00 in0.0 mm 0.00 in0.0 mm
04:05 AM 35.4°F1.9°C 25.4°F-3.7°C 67% Calm Calm -- 30.32 in1026.8 mb 0.00 in0.0 mm 0.00 in0.0 mm 0.00 in0.0 mm
04:00 AM 35.2°F1.8°C 25.1°F-3.8°C 66% Calm Calm -- 30.33 in1027.1 mb 0.00 in0.0 mm 0.00 in0.0 mm 0.00 in0.0 mm
03:55 AM 35.2°F1.8°C 25.1°F-3.8°C 66% Calm Calm -- 30.32 in1026.8 mb 0.00 in0.0 mm 0.00 in0.0 mm 0.00 in0.0 mm
03:50 AM 35.1°F1.7°C 24.7°F-4.1°C 65% Calm Calm -- 30.32 in1026.8 mb 0.00 in0.0 mm 0.00 in0.0 mm 0.00 in0.0 mm
03:45 AM 35.1°F1.7°C 24.6°F-4.1°C 65% 0.1 mph WSW0.2 kmh WSW 1.0 mph1.6 kmh 30.32 in1026.8 mb 0.00 in0.0 mm 0.00 in0.0 mm 0.00 in0.0 mm
03:40 AM 35.2°F1.8°C 24.5°F-4.2°C 65% 0.3 mph WSW0.5 kmh WSW 2.0 mph3.2 kmh 30.33 in1027.1 mb 0.00 in0.0 mm 0.00 in0.0 mm 0.00 in0.0 mm
03:35 AM 35.2°F1.8°C 24.4°F-4.2°C 64% 0.1 mph WSW0.2 kmh WSW 2.0 mph3.2 kmh 30.33 in1027.1 mb 0.00 in0.0 mm 0.00 in0.0 mm 0.00 in0.0 mm
03:30 AM 35.3°F1.8°C 24.4°F-4.2°C 64% 0.2 mph WSW0.3 kmh WSW 2.0 mph3.2 kmh 30.33 in1027.1 mb 0.00 in0.0 mm 0.00 in0.0 mm 0.00 in0.0 mm
03:25 AM 35.3°F1.8°C 24.5°F-4.2°C 64% 0.2 mph WSW0.3 kmh WSW 1.0 mph1.6 kmh 30.33 in1027.1 mb 0.00 in0.0 mm 0.00 in0.0 mm 0.00 in0.0 mm
03:20 AM 35.4°F1.9°C 24.5°F-4.2°C 64% 0.1 mph WSW0.2 kmh WSW 1.0 mph1.6 kmh 30.33 in1027.1 mb 0.00 in0.0 mm 0.00 in0.0 mm 0.00 in0.0 mm
03:15 AM 35.4°F1.9°C 24.3°F-4.3°C 64% 0.1 mph WSW0.2 kmh WSW 1.0 mph1.6 kmh 30.33 in1027.1 mb 0.00 in0.0 mm 0.00 in0.0 mm 0.00 in0.0 mm
03:10 AM 35.4°F1.9°C 24.4°F-4.2°C 64% 0.1 mph WSW0.2 kmh WSW 1.0 mph1.6 kmh 30.33 in1027.1 mb 0.00 in0.0 mm 0.00 in0.0 mm 0.00 in0.0 mm
03:05 AM 35.5°F1.9°C 24.3°F-4.3°C 63% Calm Calm -- 30.33 in1027.1 mb 0.00 in0.0 mm 0.00 in0.0 mm 0.00 in0.0 mm
03:00 AM 35.5°F1.9°C 24.2°F-4.3°C 63% Calm Calm -- 30.33 in1027.1 mb 0.00 in0.0 mm 0.00 in0.0 mm 0.00 in0.0 mm
02:55 AM 35.5°F1.9°C 24.0°F-4.4°C 63% Calm Calm -- 30.33 in1027.1 mb 0.00 in0.0 mm 0.00 in0.0 mm 0.00 in0.0 mm
02:50 AM 35.5°F1.9°C 23.8°F-4.6°C 62% Calm Calm -- 30.33 in1027.1 mb 0.00 in0.0 mm 0.00 in0.0 mm 0.00 in0.0 mm
02:45 AM 35.6°F2.0°C 23.8°F-4.6°C 62% Calm Calm -- 30.33 in1027.1 mb 0.00 in0.0 mm 0.00 in0.0 mm 0.00 in0.0 mm
02:40 AM 35.7°F2.1°C 23.8°F-4.6°C 62% Calm Calm -- 30.32 in1026.8 mb 0.00 in0.0 mm 0.00 in0.0 mm 0.00 in0.0 mm
02:35 AM 35.7°F2.1°C 23.6°F-4.7°C 61% Calm Calm -- 30.32 in1026.8 mb 0.00 in0.0 mm 0.00 in0.0 mm 0.00 in0.0 mm
02:30 AM 35.7°F2.1°C 23.4°F-4.8°C 60% Calm Calm -- 30.33 in1027.1 mb 0.00 in0.0 mm 0.00 in0.0 mm 0.00 in0.0 mm
02:25 AM 35.8°F2.1°C 23.5°F-4.7°C 60% Calm Calm -- 30.33 in1027.1 mb 0.00 in0.0 mm 0.00 in0.0 mm 0.00 in0.0 mm
02:20 AM 35.9°F2.2°C 23.1°F-4.9°C 59% Calm Calm -- 30.33 in1027.1 mb 0.00 in0.0 mm 0.00 in0.0 mm 0.00 in0.0 mm
02:15 AM 36.1°F2.3°C 23.0°F-5.0°C 59% 0.3 mph WSW0.5 kmh WSW 1.0 mph1.6 kmh 30.33 in1027.1 mb 0.00 in0.0 mm 0.00 in0.0 mm 0.00 in0.0 mm
02:10 AM 36.3°F2.4°C 23.0°F-5.0°C 58% Calm Calm 1.0 mph1.6 kmh 30.33 in1027.1 mb 0.00 in0.0 mm 0.00 in0.0 mm 0.00 in0.0 mm
02:05 AM 36.6°F2.6°C 22.9°F-5.1°C 57% Calm Calm 1.0 mph1.6 kmh 30.33 in1027.1 mb 0.00 in0.0 mm 0.00 in0.0 mm 0.00 in0.0 mm
02:00 AM 36.9°F2.7°C 22.8°F-5.1°C 56% 0.1 mph WSW0.2 kmh WSW 1.0 mph1.6 kmh 30.33 in1027.1 mb 0.00 in0.0 mm 0.00 in0.0 mm 0.00 in0.0 mm
01:55 AM 37.4°F3.0°C 23.0°F-5.0°C 56% Calm Calm -- 30.34 in1027.4 mb 0.00 in0.0 mm 0.00 in0.0 mm 0.00 in0.0 mm
01:50 AM 37.8°F3.2°C 23.2°F-4.9°C 55% Calm Calm -- 30.34 in1027.4 mb 0.00 in0.0 mm 0.00 in0.0 mm 0.00 in0.0 mm
01:45 AM 38.2°F3.4°C 23.5°F-4.7°C 55% Calm Calm -- 30.34 in1027.4 mb 0.00 in0.0 mm 0.00 in0.0 mm 0.00 in0.0 mm
01:40 AM 38.7°F3.7°C 23.5°F-4.7°C 54% Calm Calm -- 30.34 in1027.4 mb 0.00 in0.0 mm 0.00 in0.0 mm 0.00 in0.0 mm
01:35 AM 39.1°F3.9°C 23.4°F-4.8°C 53% Calm Calm -- 30.33 in1027.1 mb 0.00 in0.0 mm 0.00 in0.0 mm 0.00 in0.0 mm
01:30 AM 39.4°F4.1°C 23.3°F-4.8°C 52% 0.1 mph WSW0.2 kmh WSW 1.0 mph1.6 kmh 30.34 in1027.4 mb 0.00 in0.0 mm 0.00 in0.0 mm 0.00 in0.0 mm
01:25 AM 39.7°F4.3°C 23.2°F-4.9°C 51% 0.1 mph WSW0.2 kmh WSW 1.0 mph1.6 kmh 30.34 in1027.4 mb 0.00 in0.0 mm 0.00 in0.0 mm 0.00 in0.0 mm
01:20 AM 40.2°F4.6°C 23.4°F-4.8°C 51% Calm Calm -- 30.34 in1027.4 mb 0.00 in0.0 mm 0.00 in0.0 mm 0.00 in0.0 mm
01:15 AM 40.7°F4.8°C 24.1°F-4.4°C 51% 0.3 mph WSW0.5 kmh WSW 2.0 mph3.2 kmh 30.34 in1027.4 mb 0.00 in0.0 mm 0.00 in0.0 mm 0.00 in0.0 mm
01:10 AM 41.2°F5.1°C 24.7°F-4.1°C 51% 0.1 mph WSW0.2 kmh WSW 2.0 mph3.2 kmh 30.34 in1027.4 mb 0.00 in0.0 mm 0.00 in0.0 mm 0.00 in0.0 mm
01:05 AM 41.6°F5.3°C 23.7°F-4.6°C 49% Calm Calm -- 30.34 in1027.4 mb 0.00 in0.0 mm 0.00 in0.0 mm 0.00 in0.0 mm
01:00 AM 41.9°F5.5°C 24.2°F-4.3°C 49% Calm Calm -- 30.34 in1027.4 mb 0.00 in0.0 mm 0.00 in0.0 mm 0.00 in0.0 mm
12:55 AM 42.3°F5.7°C 24.5°F-4.2°C 49% 0.2 mph WSW0.3 kmh WSW 2.0 mph3.2 kmh 30.34 in1027.4 mb 0.00 in0.0 mm 0.00 in0.0 mm 0.00 in0.0 mm
12:50 AM 42.5°F5.8°C 22.6°F-5.2°C 45% 0.4 mph WSW0.6 kmh WSW 2.0 mph3.2 kmh 30.34 in1027.4 mb 0.00 in0.0 mm 0.00 in0.0 mm 0.00 in0.0 mm
12:45 AM 42.7°F5.9°C 22.7°F-5.2°C 45% 0.4 mph WSW0.6 kmh WSW 2.0 mph3.2 kmh 30.34 in1027.4 mb 0.00 in0.0 mm 0.00 in0.0 mm 0.00 in0.0 mm
12:40 AM 42.9°F6.1°C 23.0°F-5.0°C 45% 0.6 mph WSW1.0 kmh WSW 3.0 mph4.8 kmh 30.34 in1027.4 mb 0.00 in0.0 mm 0.00 in0.0 mm 0.00 in0.0 mm
12:35 AM 43.2°F6.2°C 23.8°F-4.6°C 46% 0.1 mph SSW0.2 kmh SSW 1.0 mph1.6 kmh 30.34 in1027.4 mb 0.00 in0.0 mm 0.00 in0.0 mm 0.00 in0.0 mm
12:30 AM 43.3°F6.3°C 23.1°F-4.9°C 44% 0.9 mph SSW1.4 kmh SSW 5.0 mph8.0 kmh 30.34 in1027.4 mb 0.00 in0.0 mm 0.00 in0.0 mm 0.00 in0.0 mm
12:25 AM 43.3°F6.3°C 23.1°F-4.9°C 45% 1.0 mph SW1.6 kmh SW 6.0 mph9.7 kmh 30.34 in1027.4 mb 0.00 in0.0 mm 0.00 in0.0 mm 0.00 in0.0 mm
12:20 AM 43.4°F6.3°C 23.4°F-4.8°C 45% 0.1 mph S0.2 kmh S 1.0 mph1.6 kmh 30.34 in1027.4 mb 0.00 in0.0 mm 0.00 in0.0 mm 0.00 in0.0 mm
12:15 AM 43.5°F6.4°C 23.1°F-4.9°C 44% 1.4 mph SSW2.3 kmh SSW 4.0 mph6.4 kmh 30.34 in1027.4 mb 0.00 in0.0 mm 0.00 in0.0 mm 0.00 in0.0 mm
12:10 AM 43.7°F6.5°C 23.4°F-4.8°C 44% 0.4 mph SSW0.6 kmh SSW 2.0 mph3.2 kmh 30.34 in1027.4 mb 0.00 in0.0 mm 0.00 in0.0 mm 0.00 in0.0 mm
12:05 AM 43.8°F6.6°C 23.3°F-4.8°C 44% 0.4 mph SSW0.6 kmh SSW 4.0 mph6.4 kmh 30.34 in1027.4 mb 0.00 in0.0 mm 0.00 in0.0 mm 0.00 in0.0 mm
12:00 AM 43.9°F6.6°C 23.6°F-4.7°C 44% 0.1 mph SSW0.2 kmh SSW 1.0 mph1.6 kmh 30.34 in1027.4 mb 0.00 in0.0 mm 0.00 in0.0 mm 0.00 in0.0 mm